KBIF/BIF METAR and TAF weather

Enter ICAO airport designator
Station Type Date Time Source
KBIF METAR 2018/07/21 10:58 UTC NOAA

KBIF 211058Z AUTO 15005KT 10SM CLR 27/07 A3005 RMK AO2 SLP097 T02680073 $


Station Type Date Time Source
KBIF Decoded METAR 2018/07/21 10:58 UTC NOAA

Biggs Army Air Field / Ft. Bliss, TX, United States (KBIF) 31-51N 106-23W
Jul 21, 2018 - 06:58 AM EDT / 2018.07.21 1058 UTC
Wind: from the SSE (150 degrees) at 6 MPH (5 KT):0
Visibility: 10 mile(s):0
Sky conditions: clear
Temperature: 80.2 F (26.8 C)
Dew Point: 45.1 F (7.3 C)
Relative Humidity: 29%
Pressure (altimeter): 30.05 in. Hg (1017 hPa)
ob: KBIF 211058Z AUTO 15005KT 10SM CLR 27/07 A3005 RMK AO2 SLP097 T02680073
cycle: 11

Station Type Date Time Source
KBIF TAF 2018/07/21 06:12 UTC NOAA

TAF KBIF 210610Z 2106/2212 16009KT 9999 SKC QNH3001INS TX38/2122Z TN24/2112Z


Example: see airport list